createdAt,value
2019-03-21T00:00:32.404Z,95.07
2019-03-21T00:03:01.832Z,84.60
2019-03-21T00:05:33.667Z,84.57
2019-03-21T00:08:03.178Z,82.73
2019-03-21T00:11:09.004Z,85.30
2019-03-21T00:13:38.405Z,90.83
2019-03-21T00:16:08.289Z,93.33
2019-03-21T00:18:37.801Z,97.50
2019-03-21T00:21:07.526Z,100.47
2019-03-21T00:23:37.082Z,105.30
2019-03-21T00:26:06.607Z,93.57
2019-03-21T00:28:36.147Z,99.73
2019-03-21T00:31:05.715Z,99.73
2019-03-21T00:33:35.111Z,100.10
2019-03-21T00:36:04.594Z,105.17
2019-03-21T00:38:34.030Z,105.33
2019-03-21T00:41:03.531Z,102.60
2019-03-21T00:43:33.230Z,100.23
2019-03-21T00:46:02.722Z,111.27
2019-03-21T00:48:32.217Z,102.00
2019-03-21T00:51:01.728Z,94.57
2019-03-21T00:53:31.169Z,109.53
2019-03-21T00:56:00.922Z,111.20
2019-03-21T00:58:30.342Z,107.90
2019-03-21T01:01:00.643Z,108.10
2019-03-21T01:03:30.089Z,104.37
2019-03-21T01:16:35.323Z,97.53
2019-03-21T01:19:04.768Z,95.10
2019-03-21T01:21:34.117Z,91.00
2019-03-21T01:24:03.490Z,107.80
2019-03-21T01:26:32.870Z,97.53
2019-03-21T01:29:02.315Z,101.70
2019-03-21T01:31:31.662Z,92.93
2019-03-21T01:34:01.016Z,113.30
2019-03-21T01:36:30.628Z,103.23
2019-03-21T01:39:00.025Z,105.90
2019-03-21T01:41:29.409Z,100.87
2019-03-21T01:43:58.853Z,106.07
2019-03-21T01:46:28.281Z,98.47
2019-03-21T01:48:57.782Z,107.13
2019-03-21T01:51:27.133Z,100.73
2019-03-21T01:53:56.534Z,105.37
2019-03-21T01:56:26.468Z,98.73
2019-03-21T01:58:55.978Z,109.40
2019-03-21T02:01:25.444Z,101.23
2019-03-21T02:03:54.787Z,98.17
2019-03-21T02:06:24.203Z,100.03
2019-03-21T02:08:53.751Z,94.90
2019-03-21T02:11:23.574Z,94.53
2019-03-21T02:13:52.935Z,96.47
2019-03-21T02:16:22.402Z,97.57
2019-03-21T02:18:51.807Z,100.47
2019-03-21T02:21:21.736Z,100.80
2019-03-21T02:30:25.157Z,93.90
2019-03-21T02:33:00.290Z,100.27
2019-03-21T02:35:31.098Z,96.03
2019-03-21T02:38:00.507Z,94.47
2019-03-21T02:40:29.903Z,95.70
2019-03-21T02:42:59.664Z,89.57
2019-03-21T02:45:29.088Z,90.17
2019-03-21T02:47:58.594Z,92.40
2019-03-21T02:50:30.607Z,94.33
2019-03-21T02:53:01.620Z,97.70
2019-03-21T02:55:31.072Z,102.03
2019-03-21T02:58:00.431Z,95.00
2019-03-21T03:00:30.416Z,84.73
2019-03-21T03:03:00.501Z,89.73
2019-03-21T03:05:30.693Z,106.87
2019-03-21T03:08:00.148Z,95.13
2019-03-21T03:10:35.058Z,93.20
2019-03-21T03:13:04.623Z,101.50
2019-03-21T03:15:34.256Z,103.13
2019-03-21T03:18:03.964Z,95.10
2019-03-21T03:20:33.335Z,94.83
2019-03-21T03:23:02.766Z,89.90
2019-03-21T03:25:32.321Z,87.40
2019-03-21T03:28:08.121Z,85.10
2019-03-21T03:30:37.555Z,90.93
2019-03-21T03:33:07.013Z,84.97
2019-03-21T03:35:36.522Z,89.93
2019-03-21T03:38:06.037Z,82.37
2019-03-21T03:40:38.339Z,84.47
2019-03-21T03:43:07.795Z,92.37
2019-03-21T03:45:38.611Z,91.20
2019-03-21T03:48:08.543Z,88.20
2019-03-21T03:50:37.978Z,87.17
2019-03-21T03:53:07.403Z,82.57
2019-03-21T03:55:37.963Z,85.43
2019-03-21T03:58:09.429Z,83.73
2019-03-21T04:00:39.212Z,89.63
2019-03-21T04:03:08.657Z,85.13
2019-03-21T04:05:38.101Z,87.00
2019-03-21T04:08:07.666Z,85.37
2019-03-21T04:10:38.852Z,85.60
2019-03-21T04:13:08.398Z,82.30
2019-03-21T04:15:51.696Z,87.57
2019-03-21T04:18:09.049Z,82.13
2019-03-21T04:20:39.742Z,87.87
2019-03-21T04:23:09.185Z,86.83
2019-03-21T04:25:41.581Z,86.57
2019-03-21T04:28:14.362Z,79.83
2019-03-21T04:30:45.046Z,84.83
2019-03-21T04:33:14.499Z,83.77
2019-03-21T04:35:44.038Z,84.53
2019-03-21T04:38:13.576Z,94.43
2019-03-21T04:40:42.905Z,92.67
2019-03-21T04:43:12.301Z,83.80
2019-03-21T04:45:41.683Z,84.80
2019-03-21T04:48:11.032Z,88.20
2019-03-21T04:50:40.464Z,88.13
2019-03-21T04:53:09.866Z,87.67
2019-03-21T04:55:39.348Z,86.30
2019-03-21T04:58:08.903Z,84.97
2019-03-21T05:00:38.641Z,84.20
2019-03-21T05:03:08.448Z,75.50
2019-03-21T05:05:37.886Z,80.60
2019-03-21T05:08:07.344Z,81.73
2019-03-21T05:10:36.811Z,76.13
2019-03-21T05:13:06.226Z,79.20
2019-03-21T05:15:37.598Z,72.40
2019-03-21T05:18:10.044Z,81.93
2019-03-21T05:20:39.575Z,76.97
2019-03-21T05:23:09.029Z,75.47
2019-03-21T05:25:38.474Z,75.23
2019-03-21T05:28:07.837Z,72.70
2019-03-21T05:30:47.102Z,69.63
2019-03-21T05:33:16.613Z,68.70
2019-03-21T05:35:46.011Z,66.60
2019-03-21T05:38:15.534Z,63.73
2019-03-21T05:40:45.064Z,66.07
2019-03-21T05:43:17.584Z,54.03
2019-03-21T05:45:47.025Z,56.57
2019-03-21T05:48:16.913Z,57.60
2019-03-21T05:51:03.840Z,51.93
2019-03-21T05:53:33.247Z,42.53
2019-03-21T05:56:02.702Z,45.77
2019-03-21T05:58:32.157Z,45.47
2019-03-21T06:01:01.915Z,43.17
2019-03-21T06:03:34.437Z,46.63
2019-03-21T06:06:10.879Z,47.37
2019-03-21T06:08:40.599Z,42.00
2019-03-21T06:11:10.012Z,42.60
2019-03-21T06:13:39.370Z,46.63
2019-03-21T06:16:09.680Z,46.57
2019-03-21T06:19:17.955Z,46.77
2019-03-21T06:22:05.751Z,45.93
2019-03-21T06:24:50.343Z,48.53
2019-03-21T06:27:44.796Z,51.67
2019-03-21T06:30:14.212Z,48.50
2019-03-21T06:32:44.613Z,55.83
2019-03-21T06:35:23.964Z,53.17
2019-03-21T06:47:36.764Z,55.80
2019-03-21T06:50:06.756Z,54.63
2019-03-21T06:52:36.195Z,59.63
2019-03-21T06:55:06.272Z,59.20
2019-03-21T06:57:35.819Z,61.27
2019-03-21T07:00:05.816Z,58.90
2019-03-21T07:02:35.356Z,62.17
2019-03-21T07:05:05.292Z,57.60
2019-03-21T07:07:34.667Z,57.60
2019-03-21T07:10:04.564Z,56.83
2019-03-21T07:12:34.016Z,53.07
2019-03-21T07:15:04.560Z,65.27
2019-03-21T07:17:33.963Z,66.77
2019-03-21T07:20:03.404Z,58.10
2019-03-21T07:22:32.813Z,57.83
2019-03-21T07:25:04.343Z,57.27
2019-03-21T07:27:33.763Z,62.50
2019-03-21T07:30:03.324Z,59.57
2019-03-21T07:32:33.585Z,62.93
2019-03-21T07:35:06.579Z,62.87
2019-03-21T07:37:36.047Z,61.87
2019-03-21T07:40:06.976Z,66.53
2019-03-21T07:42:36.576Z,61.57
2019-03-21T07:45:07.778Z,64.80
2019-03-21T07:47:37.267Z,59.90
2019-03-21T07:50:07.171Z,62.97
2019-03-21T07:52:36.637Z,63.60
2019-03-21T07:55:07.086Z,66.13
2019-03-21T07:57:36.567Z,63.40
2019-03-21T08:00:08.196Z,60.97
2019-03-21T08:02:37.788Z,57.77
2019-03-21T08:05:07.641Z,57.87
2019-03-21T08:07:37.166Z,54.63
2019-03-21T08:10:07.786Z,55.97
2019-03-21T08:12:37.364Z,52.87
2019-03-21T08:15:07.615Z,46.23
2019-03-21T08:17:37.297Z,51.30
2019-03-21T08:20:08.176Z,54.83
2019-03-21T08:22:37.698Z,52.17
2019-03-21T08:25:08.467Z,53.37
2019-03-21T08:27:38.019Z,52.77
2019-03-21T08:30:08.461Z,49.33
2019-03-21T08:32:37.848Z,47.83
2019-03-21T08:35:08.032Z,48.20
2019-03-21T08:37:37.500Z,49.17
2019-03-21T08:40:07.996Z,45.00
2019-03-21T08:42:37.503Z,49.47
2019-03-21T08:45:07.666Z,47.63
2019-03-21T08:47:37.253Z,42.33
2019-03-21T08:50:07.138Z,46.03
2019-03-21T08:52:36.521Z,46.17
2019-03-21T08:55:06.373Z,42.80
2019-03-21T08:57:35.993Z,46.33
2019-03-21T09:00:07.033Z,42.57
2019-03-21T09:02:36.637Z,45.10
2019-03-21T09:05:06.753Z,38.40
2019-03-21T09:07:36.251Z,39.63
2019-03-21T09:10:07.983Z,39.77
2019-03-21T09:12:37.569Z,39.87
2019-03-21T09:15:08.192Z,42.37
2019-03-21T09:17:37.652Z,40.97
2019-03-21T09:20:07.532Z,47.10
2019-03-21T09:22:36.957Z,51.27
2019-03-21T09:25:06.835Z,44.57
2019-03-21T09:27:36.304Z,46.77
2019-03-21T09:30:06.836Z,47.80
2019-03-21T09:32:36.382Z,45.03
2019-03-21T09:35:06.755Z,49.93
2019-03-21T09:37:36.191Z,49.27
2019-03-21T09:40:06.709Z,46.73
2019-03-21T09:42:36.575Z,45.33
2019-03-21T09:45:06.936Z,39.13
2019-03-21T09:47:36.372Z,39.50
2019-03-21T09:50:06.685Z,36.90
2019-03-21T09:52:36.165Z,37.07
2019-03-21T09:55:06.393Z,37.00
2019-03-21T09:57:36.070Z,35.83
2019-03-21T10:00:06.494Z,40.40
2019-03-21T10:02:35.874Z,35.67
2019-03-21T10:05:06.262Z,31.93
2019-03-21T10:07:35.779Z,33.20
2019-03-21T10:10:06.011Z,31.13
2019-03-21T10:12:35.420Z,34.53
2019-03-21T10:15:05.479Z,38.33
2019-03-21T10:17:35.163Z,35.73
2019-03-21T10:20:05.260Z,35.67
2019-03-21T10:22:34.630Z,43.03
2019-03-21T10:25:04.459Z,40.33
2019-03-21T10:27:33.862Z,39.87
2019-03-21T10:30:03.285Z,41.03
2019-03-21T10:32:32.644Z,37.80
2019-03-21T10:35:02.068Z,37.53
2019-03-21T10:37:31.730Z,37.77
2019-03-21T10:40:01.131Z,41.30
2019-03-21T10:42:48.399Z,42.00
2019-03-21T10:45:18.228Z,47.57
2019-03-21T10:47:47.801Z,45.13
2019-03-21T10:50:24.829Z,44.87
2019-03-21T10:52:54.190Z,41.37
2019-03-21T10:55:24.803Z,49.13
2019-03-21T10:57:54.297Z,50.20
2019-03-21T11:00:24.352Z,42.23
2019-03-21T11:02:53.716Z,41.70
2019-03-21T11:05:23.488Z,42.73
2019-03-21T11:07:53.060Z,41.37
2019-03-21T11:10:23.504Z,42.87
2019-03-21T11:12:53.062Z,43.93
2019-03-21T11:15:22.609Z,44.13
2019-03-21T11:17:52.443Z,40.33
2019-03-21T11:20:35.571Z,41.03
2019-03-21T11:23:06.522Z,40.60
2019-03-21T11:25:36.093Z,40.17
2019-03-21T11:28:06.159Z,35.90
2019-03-21T11:30:40.102Z,33.87
2019-03-21T11:33:09.621Z,37.73
2019-03-21T11:35:39.162Z,37.70
2019-03-21T11:38:09.014Z,36.17
2019-03-21T11:40:38.698Z,35.17
2019-03-21T11:43:13.135Z,34.77
2019-03-21T11:45:42.924Z,31.87
2019-03-21T11:48:12.362Z,33.73
2019-03-21T11:50:41.769Z,39.57
2019-03-21T11:53:11.188Z,35.10
2019-03-21T11:55:40.661Z,34.23
2019-03-21T11:58:10.165Z,35.90
2019-03-21T12:00:44.386Z,36.70
2019-03-21T12:03:12.245Z,38.43
2019-03-21T12:05:42.639Z,38.20
2019-03-21T12:08:12.137Z,33.63
2019-03-21T12:10:41.537Z,34.87
2019-03-21T12:13:11.291Z,34.97
2019-03-21T12:15:40.970Z,34.23
2019-03-21T12:18:10.421Z,38.73
2019-03-21T12:20:39.779Z,35.20
2019-03-21T12:23:09.571Z,33.27
2019-03-21T12:25:39.071Z,32.57
2019-03-21T12:28:08.585Z,36.60
2019-03-21T12:30:39.469Z,34.53
2019-03-21T12:33:09.063Z,36.07
2019-03-21T12:35:38.682Z,32.70
2019-03-21T12:38:08.358Z,34.53
2019-03-21T12:40:42.743Z,33.20
2019-03-21T12:43:12.126Z,31.60
2019-03-21T12:45:41.838Z,31.07
2019-03-21T12:48:11.415Z,28.77
2019-03-21T12:50:41.014Z,26.90
2019-03-21T12:56:38.971Z,31.70
2019-03-21T12:59:08.662Z,26.23
2019-03-21T13:01:38.252Z,26.40
2019-03-21T13:04:07.614Z,25.70
2019-03-21T13:06:37.189Z,26.07
2019-03-21T13:09:08.239Z,25.67
2019-03-21T13:11:37.869Z,24.93
2019-03-21T13:14:07.674Z,24.33
2019-03-21T13:16:37.155Z,24.93
2019-03-21T13:19:06.675Z,27.40
2019-03-21T13:21:36.243Z,22.07
2019-03-21T13:24:06.524Z,21.77
2019-03-21T13:26:38.179Z,23.77
2019-03-21T13:29:08.646Z,21.00
2019-03-21T13:31:38.774Z,23.93
2019-03-21T13:34:08.285Z,19.50
2019-03-21T13:36:37.743Z,21.73
2019-03-21T13:39:08.322Z,21.10
2019-03-21T13:41:37.791Z,25.77
2019-03-21T13:44:07.216Z,23.40
2019-03-21T13:46:36.681Z,20.43
2019-03-21T13:49:06.300Z,22.13
2019-03-21T13:51:35.687Z,23.63
2019-03-21T13:54:05.289Z,23.10
2019-03-21T13:56:38.393Z,24.03
2019-03-21T13:59:06.076Z,24.37
2019-03-21T14:01:35.493Z,20.50
2019-03-21T14:04:04.965Z,18.47
2019-03-21T14:06:34.506Z,23.60
2019-03-21T14:09:05.674Z,21.23
2019-03-21T14:11:35.178Z,19.33
2019-03-21T14:14:04.762Z,20.40
2019-03-21T14:16:34.315Z,20.73
2019-03-21T14:19:03.773Z,23.03
2019-03-21T14:21:33.197Z,20.10
2019-03-21T14:24:02.647Z,19.10
2019-03-21T14:26:32.067Z,16.83
2019-03-21T14:29:12.158Z,18.83
2019-03-21T14:31:32.688Z,18.63
2019-03-21T14:34:02.182Z,18.67
2019-03-21T14:36:31.806Z,20.50
2019-03-21T14:39:01.225Z,20.53
2019-03-21T14:41:30.624Z,18.50
2019-03-21T14:44:00.085Z,21.37
2019-03-21T14:46:29.541Z,19.03
2019-03-21T14:48:58.960Z,19.33
2019-03-21T14:51:28.377Z,18.80
2019-03-21T14:53:57.797Z,22.57
2019-03-21T14:56:27.277Z,22.83
2019-03-21T14:58:56.828Z,23.37
2019-03-21T15:01:26.216Z,25.97
2019-03-21T15:03:55.983Z,22.83
2019-03-21T15:06:25.425Z,25.10
2019-03-21T15:08:55.000Z,25.27
2019-03-21T15:11:24.429Z,22.37
2019-03-21T15:13:54.014Z,25.23
2019-03-21T15:16:23.441Z,25.03
2019-03-21T15:18:53.043Z,24.83
2019-03-21T15:21:22.533Z,27.63
2019-03-21T15:23:59.295Z,23.70
2019-03-21T15:26:23.101Z,25.57
2019-03-21T15:28:54.366Z,25.53
2019-03-21T15:31:23.807Z,25.93
2019-03-21T15:33:53.232Z,25.07
2019-03-21T15:36:22.651Z,29.13
2019-03-21T15:38:52.055Z,25.87
2019-03-21T15:41:21.429Z,26.10
2019-03-21T15:43:50.829Z,28.37
2019-03-21T15:46:20.280Z,25.63
2019-03-21T15:48:49.769Z,30.23
2019-03-21T15:51:19.149Z,28.43
2019-03-21T15:53:56.067Z,25.40
2019-03-21T15:56:20.021Z,29.77
2019-03-21T15:58:49.438Z,25.47
2019-03-21T16:01:18.875Z,25.37
2019-03-21T16:03:48.538Z,26.10
2019-03-21T16:06:18.135Z,29.63
2019-03-21T16:08:47.598Z,30.20
2019-03-21T16:11:16.968Z,28.47
2019-03-21T16:13:46.341Z,27.53
2019-03-21T16:16:15.803Z,23.43
2019-03-21T16:18:45.222Z,27.37
2019-03-21T16:21:14.715Z,22.97
2019-03-21T16:23:44.170Z,24.17
2019-03-21T16:26:13.791Z,28.97
2019-03-21T16:28:43.271Z,25.67
2019-03-21T16:31:16.390Z,25.03
2019-03-21T16:33:45.913Z,28.57
2019-03-21T16:36:15.557Z,30.40
2019-03-21T16:38:45.118Z,27.60
2019-03-21T16:41:22.877Z,26.80
2019-03-21T16:43:52.412Z,25.90
2019-03-21T16:46:21.976Z,26.67
2019-03-21T16:48:52.485Z,25.53
2019-03-21T16:51:22.145Z,28.13
2019-03-21T16:57:31.765Z,27.70
2019-03-21T17:00:01.167Z,26.07
2019-03-21T17:02:48.537Z,25.53
2019-03-21T17:05:26.265Z,28.17
2019-03-21T17:07:57.166Z,28.97
2019-03-21T17:10:26.848Z,25.13
2019-03-21T17:12:58.495Z,25.73
2019-03-21T17:15:28.057Z,23.00
2019-03-21T17:17:57.564Z,25.80
2019-03-21T17:20:48.297Z,23.97
2019-03-21T17:23:18.965Z,26.37
2019-03-21T17:25:48.775Z,24.03
2019-03-21T17:28:18.183Z,25.33
2019-03-21T17:30:48.678Z,25.67
2019-03-21T17:33:18.204Z,23.20
2019-03-21T17:35:47.655Z,22.43
2019-03-21T17:38:16.994Z,27.97
2019-03-21T17:40:46.461Z,26.43
2019-03-21T17:43:15.981Z,25.87
2019-03-21T17:45:45.673Z,26.53
2019-03-21T17:48:21.092Z,26.50
2019-03-21T17:50:52.677Z,24.07
2019-03-21T17:53:22.268Z,22.17
2019-03-21T17:55:52.037Z,24.53
2019-03-21T17:58:21.457Z,24.13
2019-03-21T18:00:52.840Z,25.40
2019-03-21T18:03:46.071Z,25.10
2019-03-21T18:06:15.593Z,22.90
2019-03-21T18:08:45.062Z,24.60
2019-03-21T18:11:14.601Z,24.40
2019-03-21T18:13:43.966Z,26.37
2019-03-21T18:16:15.568Z,25.97
2019-03-21T18:18:45.135Z,25.37
2019-03-21T18:21:14.712Z,29.20
2019-03-21T18:23:44.227Z,25.97
2019-03-21T18:26:13.865Z,25.63
2019-03-21T18:28:43.279Z,24.63
2019-03-21T18:31:12.738Z,23.87
2019-03-21T18:33:42.085Z,22.00
2019-03-21T18:36:11.598Z,26.57
2019-03-21T18:38:41.044Z,23.90
2019-03-21T18:41:10.404Z,27.73
2019-03-21T18:43:39.963Z,22.03
2019-03-21T18:46:09.708Z,24.27
2019-03-21T18:48:39.165Z,26.57
2019-03-21T18:51:08.619Z,26.30
2019-03-21T18:53:38.033Z,24.17
2019-03-21T18:56:09.492Z,25.00
2019-03-21T18:58:41.049Z,23.40
2019-03-21T19:01:10.491Z,23.17
2019-03-21T19:03:40.022Z,25.70
2019-03-21T19:06:10.568Z,26.27
2019-03-21T19:08:40.127Z,27.47
2019-03-21T19:11:10.126Z,27.20
2019-03-21T19:13:43.783Z,28.40
2019-03-21T19:16:13.228Z,30.27
2019-03-21T19:18:42.935Z,29.43
2019-03-21T19:21:13.234Z,27.20
2019-03-21T19:23:42.650Z,30.33
2019-03-21T19:26:12.062Z,28.53
2019-03-21T19:28:41.475Z,29.63
2019-03-21T19:31:11.955Z,30.17
2019-03-21T19:33:47.735Z,35.73
2019-03-21T19:36:25.738Z,34.30
2019-03-21T19:38:55.912Z,34.20
2019-03-21T19:41:25.320Z,31.97
2019-03-21T19:43:55.040Z,32.37
2019-03-21T19:46:30.827Z,30.90
2019-03-21T19:48:55.588Z,33.67
2019-03-21T19:51:25.030Z,38.03
2019-03-21T19:53:54.774Z,37.13
2019-03-21T19:56:24.540Z,34.20
2019-03-21T19:58:54.225Z,40.27
2019-03-21T20:01:23.859Z,35.60
2019-03-21T20:03:53.340Z,32.40
2019-03-21T20:06:22.764Z,40.37
2019-03-21T20:08:52.317Z,38.27
2019-03-21T20:11:21.753Z,37.20
2019-03-21T20:13:51.615Z,37.00
2019-03-21T20:16:21.559Z,36.40
2019-03-21T20:18:51.141Z,36.03
2019-03-21T20:21:20.676Z,35.17
2019-03-21T20:23:50.414Z,37.77
2019-03-21T20:26:19.842Z,35.67
2019-03-21T20:28:49.514Z,40.87
2019-03-21T20:31:19.037Z,37.63
2019-03-21T20:33:48.447Z,41.97
2019-03-21T20:36:17.782Z,37.73
2019-03-21T20:38:47.285Z,41.27
2019-03-21T20:41:16.736Z,40.37
2019-03-21T20:43:46.097Z,38.30
2019-03-21T20:46:16.670Z,42.33
2019-03-21T20:48:44.435Z,43.37
2019-03-21T20:51:13.841Z,41.80
2019-03-21T20:53:43.218Z,42.57
2019-03-21T20:56:14.700Z,44.23
2019-03-21T20:58:44.092Z,45.80
2019-03-21T21:01:13.771Z,41.80
2019-03-21T21:03:43.316Z,41.97
2019-03-21T21:06:14.154Z,42.37
2019-03-21T21:08:43.888Z,43.57
2019-03-21T21:11:15.882Z,45.90
2019-03-21T21:13:45.559Z,48.63
2019-03-21T21:16:15.468Z,46.00
2019-03-21T21:18:44.915Z,48.87
2019-03-21T21:21:15.480Z,50.80
2019-03-21T21:23:45.110Z,53.93
2019-03-21T21:26:16.802Z,50.83
2019-03-21T21:28:46.302Z,57.47
2019-03-21T21:31:16.872Z,59.33
2019-03-21T21:33:46.505Z,51.50
2019-03-21T21:36:21.840Z,55.17
2019-03-21T21:38:47.179Z,50.50
2019-03-21T21:41:16.919Z,56.07
2019-03-21T21:43:46.343Z,51.27
2019-03-21T21:46:15.753Z,60.73
2019-03-21T21:48:45.364Z,53.97
2019-03-21T21:51:14.891Z,51.37
2019-03-21T21:53:44.239Z,56.97
2019-03-21T21:56:17.820Z,57.07
2019-03-21T21:58:44.817Z,59.57
2019-03-21T22:01:15.550Z,62.40
2019-03-21T22:03:44.949Z,59.73
2019-03-21T22:06:15.355Z,52.67
2019-03-21T22:08:49.928Z,67.77
2019-03-21T22:11:19.465Z,52.30
2019-03-21T22:13:48.864Z,58.50
2019-03-21T22:16:18.228Z,57.70
2019-03-21T22:18:47.892Z,61.93
2019-03-21T22:21:17.364Z,59.37
2019-03-21T22:23:46.755Z,61.03
2019-03-21T22:26:16.327Z,60.27
2019-03-21T22:28:45.862Z,56.90
2019-03-21T22:37:23.046Z,59.13
2019-03-21T22:39:52.498Z,72.40
2019-03-21T22:42:22.057Z,63.97
2019-03-21T22:44:51.506Z,61.23
2019-03-21T22:47:20.873Z,62.20
2019-03-21T22:49:50.228Z,65.47
2019-03-21T22:52:19.664Z,61.70
2019-03-21T22:54:49.006Z,63.20
2019-03-21T22:57:18.388Z,63.97
2019-03-21T22:59:47.932Z,67.93
2019-03-21T23:02:17.437Z,70.13
2019-03-21T23:04:47.107Z,64.63
2019-03-21T23:07:16.447Z,65.50
2019-03-21T23:09:45.891Z,63.97
2019-03-21T23:12:15.535Z,67.40
2019-03-21T23:14:45.183Z,65.60
2019-03-21T23:17:14.642Z,65.13
2019-03-21T23:19:44.101Z,63.90
2019-03-21T23:22:13.507Z,58.47
2019-03-21T23:24:43.395Z,63.93
2019-03-21T23:27:14.272Z,64.30
2019-03-21T23:29:43.791Z,66.67
2019-03-21T23:32:13.166Z,61.77
2019-03-21T23:34:42.627Z,63.57
2019-03-21T23:37:12.020Z,66.60
2019-03-21T23:39:41.377Z,69.33
2019-03-21T23:42:10.828Z,66.27
2019-03-21T23:44:40.268Z,63.87
2019-03-21T23:47:09.626Z,62.67
2019-03-21T23:49:39.041Z,65.33
2019-03-21T23:52:08.402Z,62.60
2019-03-21T23:54:37.800Z,59.50
2019-03-21T23:57:07.202Z,60.23
2019-03-21T23:59:37.016Z,47.00
